航空気象通報

ウインドサーファーのための航空気象通報による風予報です。

6/1-6/3の航空気象通報

2017年06月02日 00時47分09秒 | TAF
羽田空港
TAF RJTT 011109Z 0112/0218 16008KT 9999 FEW020 SCT050
BECMG 0117/0119 22010KT
BECMG 0200/0203 20020KT
TEMPO 0200/0203 20022G34KT
BECMG 0203/0206 32010KT
日本時間1日21時-2日02時:160度から8ノットの風
02-04時:風が変化
04-09時:220度から10ノットの風
09-12時:風が変化
12時:200度から20ノットの風
但し、09-12時の間:ときどき200度から22ノット、突風34ノット
12-15時:風が変化
15時-3日03時:320度から10ノットの風


静岡空港
TAF RJNS 011106Z 0112/0218 26012KT 9999 FEW030
TEMPO 0117/0120 3000 SHRA BR FEW005 BKN008
BECMG 0200/0203 27024KT
TEMPO 0200/0209 27028G40KT
日本時間1日21時-2日09時:260度から12ノットの風
09-12時:風が変化
12時-3日03時:270度から24ノットの風
但し、2日09-18時の間:ときどき270度から28ノット、突風40ノット

但し、2日02-05時の間:ときどき

福岡空港
TAF RJFF 011106Z 0112/0218 23005KT 8000 FEW010 BKN015
BECMG 0114/0116 31007KT
BECMG 0212/0215 16005KT
日本時間1日21-23時:230度から5ノットの風
23時-2日01時:風が変化
01-21時:310度から7ノットの風
21-24時:風が変化
3日00-03時:160度から5ノットの風


那覇空港
TAF ROAH 011112Z 0112/0218 12006KT 9999 FEW010 BKN025
TEMPO 0115/0118 4000 SHRA
BECMG 0200/0203 08012KT
TEMPO 0200/0206 4000 SHRA BKN008 BKN015 FEW020CB
BECMG 0209/0212 10012KT
TEMPO 0209/0215 3000 +SHRA BKN008 BKN015 FEW020CB
日本時間1日21時-2日09時:120度から6ノットの風
09-12時:風が変化
12-18時:080度から12ノットの風
18-21時:風が変化
21時-3日03時:100度から12ノットの風

但し、1日00-03時の間:ときどき
但し、1日09-15時の間:ときどき
但し、1日18-24時の間:ときどき

石垣空港
TAF ROIG 011118Z 0112/0218 22006KT 9999 FEW010 SCT020
BECMG 0121/0123 23018KT
TEMPO 0209/0212 4000 SHRA BKN008 BKN015 FEW020CB
日本時間1日21時-2日06時:220度から6ノットの風
06-08時:風が変化
08時-3日03時:230度から18ノットの風

但し、2日18-21時の間:ときどき

マウイのカフルイ空港
PHOG 011120Z 0112/0212 08009KT P6SM FEW030 SCT050
FM011900 06020G30KT P6SM FEW030 SCT060
FM020600 06010KT P6SM FEW030 FEW050 AMD LTD TO VIS AND WIND TIL 011600
ハワイ時間1日02-09時:080度から9ノットの風
09-20時:060度から20ノット、突風30ノット
20時-2日02時:060度から10ノットの風


サイパン空港
TAF PGSN 011133Z 0112/0212 10008KT P6SM VCSH FEW020 OVC100
マリアナ時間1日22時-3日22時:100度から8ノットの風
ジャンル:
お天気
コメント   この記事についてブログを書く
この記事をはてなブックマークに追加
« 5/30-6/1の航空気象通報 | トップ | 6/2-6/4の航空気象通報 »
最近の画像もっと見る

コメントを投稿

ブログ作成者から承認されるまでコメントは反映されません。

TAF」カテゴリの最新記事

トラックバック

この記事のトラックバック  Ping-URL
ブログ作成者から承認されるまでトラックバックは反映されません。
  • 30日以上前の記事に対するトラックバックは受け取らないよう設定されております。
  • 送信元の記事内容が半角英数のみのトラックバックは受け取らないよう設定されております。
  • このブログへのリンクがない記事からのトラックバックは受け取らないよう設定されております。
  • ※ブログ管理者のみ、編集画面で設定の変更が可能です。